Franklin, PA

2:40 PM EST on December 11, 2017 (GMT -0500)
Venango Regional

Weather History for KFKL - December, 2012

Change the Weather History Date:

Friday, December 21, 2012

  Actual Average Record
Temperature  
Mean Temperature 32 °F -  
Max Temperature 35 °F 36 °F 59 °F (2013)
Min Temperature 28 °F 22 °F -1 °F (1942)
Degree Days  
Heating Degree Days 34    
Moisture  
Dew Point 26 °F    
Average Humidity 86    
Maximum Humidity 93    
Minimum Humidity 80    
Precipitation  
Precipitation 0.16 in - - ()
Sea Level Pressure  
Sea Level Pressure 29.36 in    
Wind  
Wind Speed 13 mph (WSW)    
Max Wind Speed 23 mph    
Max Gust Speed 33 mph    
Visibility 5 miles    
Events      
Averages and records for this station are not official NWS values.
T = Trace of Precipitation, MM = Missing Value Source: NWS Daily Summary

Daily Weather History Graph

Daily Weather History Graph

Search for Another Location

Airport or City:

Trip Planner

Search our weather history database for the weather conditions in past years. The results will help you decide how hot, cold, wet, or windy it might be!

Date:

Astronomy

Dec. 21, 2012 Rise Set
Actual Time 7:42 AM EST 4:53 PM EST
Civil Twilight 7:10 AM EST 5:24 PM EST
Nautical Twilight 6:36 AM EST 5:59 PM EST
Astronomical Twilight 6:02 AM EST 6:33 PM EST
Moon 12:42 PM EST (12/21) 1:24 AM EST (12/21)
Length of Visible Light 10h 13m
Length of Day
9h 11m
Waxing Gibbous, 64% of the Moon is Illuminated
Dec 21
Waxing Gibbous
Dec 28
Full
Jan 4
Last Quarter
Jan 11
New
Jan 18
First Quarter

Hourly Weather History & Observations

Time (EST) Temp. Windchill Dew Point Humidity Pressure Visibility Wind Dir Wind Speed Gust Speed Precip Events Conditions
12:15 AM 35.6 °F 27.5 °F 33.8 °F 93% 29.37 in 5.0 mi WSW 11.5 mph 21.9 mph 0.06 in   Overcast
12:35 AM 35.6 °F 30.7 °F 33.8 °F 93% 29.38 in 3.0 mi WSW 5.8 mph - 0.10 in   Overcast
12:55 AM 35.6 °F 26.6 °F 33.8 °F 93% 29.38 in 3.0 mi SW 13.8 mph 24.2 mph 0.12 in   Overcast
1:55 AM 35.6 °F 29.9 °F 32.0 °F 87% 29.37 in 8.0 mi SW 6.9 mph - 0.02 in   Overcast
2:15 AM 33.8 °F 24.8 °F 30.2 °F 87% 29.38 in 3.0 mi WSW 12.7 mph 25.3 mph 0.01 in   Overcast
2:35 AM 33.8 °F 25.3 °F 28.4 °F 81% 29.38 in 10.0 mi SW 11.5 mph 21.9 mph 0.01 in   Overcast
2:55 AM 33.8 °F 25.8 °F 28.4 °F 81% 29.38 in 10.0 mi SW 10.4 mph 16.1 mph 0.01 in   Overcast
3:15 AM 32.0 °F 23.6 °F 28.4 °F 87% 29.37 in 5.0 mi SW 10.4 mph - N/A   Overcast
3:35 AM 32.0 °F 23.6 °F 28.4 °F 87% 29.36 in 10.0 mi SSW 10.4 mph - N/A   Overcast
3:55 AM 32.0 °F 21.6 °F 28.4 °F 87% 29.35 in 2.5 mi SW 15.0 mph 20.7 mph N/A   Overcast
4:15 AM 30.2 °F 20.2 °F 28.4 °F 93% 29.34 in 1.5 mi SW 12.7 mph 17.3 mph N/A   Overcast
4:35 AM 30.2 °F 21.3 °F 28.4 °F 93% 29.34 in 8.0 mi SW 10.4 mph 18.4 mph N/A   Mostly Cloudy
4:55 AM 32.0 °F 22.1 °F 26.6 °F 80% 29.33 in 10.0 mi SW 13.8 mph 18.4 mph N/A   Overcast
5:15 AM 30.2 °F 19.8 °F 26.6 °F 86% 29.33 in 9.0 mi SW 13.8 mph 20.7 mph N/A   Overcast
5:35 AM 30.2 °F 19.8 °F 24.8 °F 80% 29.32 in 10.0 mi SW 13.8 mph 23.0 mph N/A   Overcast
5:55 AM 30.2 °F 19.8 °F 24.8 °F 80% 29.32 in 10.0 mi SW 13.8 mph 26.5 mph N/A   Overcast
6:15 AM 30.2 °F 18.9 °F 24.8 °F 80% 29.32 in 10.0 mi SW 16.1 mph 21.9 mph N/A   Overcast
6:35 AM 30.2 °F 19.8 °F 24.8 °F 80% 29.32 in 10.0 mi SSW 13.8 mph 20.7 mph N/A   Overcast
6:55 AM 30.2 °F 20.2 °F 24.8 °F 80% 29.31 in 10.0 mi SW 12.7 mph 18.4 mph N/A   Overcast
7:15 AM 30.2 °F 18.9 °F 24.8 °F 80% 29.31 in 10.0 mi SW 16.1 mph 21.9 mph N/A   Overcast
7:35 AM 30.2 °F 21.3 °F 24.8 °F 80% 29.30 in 10.0 mi SW 10.4 mph 16.1 mph N/A   Overcast
7:55 AM 30.2 °F 20.2 °F 24.8 °F 80% 29.30 in 8.0 mi SW 12.7 mph 19.6 mph N/A   Overcast
8:15 AM 30.2 °F 20.8 °F 24.8 °F 80% 29.29 in 10.0 mi SW 11.5 mph - N/A   Overcast
8:35 AM 30.2 °F 20.2 °F 24.8 °F 80% 29.29 in 10.0 mi SSW 12.7 mph 27.6 mph N/A   Overcast
8:55 AM 30.2 °F 19.3 °F 24.8 °F 80% 29.29 in 10.0 mi SW 15.0 mph 20.7 mph N/A   Overcast
9:15 AM 30.2 °F 20.8 °F 24.8 °F 80% 29.29 in 8.0 mi SW 11.5 mph 21.9 mph N/A   Overcast
9:35 AM 28.4 °F 16.6 °F 24.8 °F 86% 29.29 in 5.0 mi SSW 16.1 mph 21.9 mph N/A   Overcast
9:55 AM 28.4 °F 17.5 °F 24.8 °F 86% 29.29 in 7.0 mi SSW 13.8 mph 19.6 mph N/A   Overcast
10:15 AM 28.4 °F 16.6 °F 24.8 °F 86% 29.29 in 5.0 mi SW 16.1 mph 23.0 mph N/A   Overcast
10:35 AM 28.4 °F 18.5 °F 24.8 °F 86% 29.29 in 10.0 mi SW 11.5 mph 21.9 mph N/A   Overcast
10:55 AM 28.4 °F 18.5 °F 24.8 °F 86% 29.29 in 5.0 mi SW 11.5 mph 19.6 mph N/A   Overcast
11:15 AM 28.4 °F 19.1 °F 26.6 °F 93% 29.28 in 3.0 mi SW 10.4 mph - N/A   Overcast
11:35 AM 30.2 °F 20.2 °F 26.6 °F 86% 29.27 in 5.0 mi SW 12.7 mph - N/A   Overcast
11:55 AM 28.4 °F 21.2 °F 26.6 °F 93% 29.26 in 1.8 mi SW 6.9 mph - N/A   Overcast
12:15 PM 30.2 °F 21.3 °F 26.6 °F 86% 29.26 in 2.0 mi SW 10.4 mph - N/A   Overcast
12:35 PM 30.2 °F 21.3 °F 26.6 °F 86% 29.26 in 3.0 mi SW 10.4 mph - N/A   Overcast
12:55 PM 30.2 °F 20.2 °F 26.6 °F 86% 29.25 in 8.0 mi WSW 12.7 mph 19.6 mph N/A   Overcast
1:15 PM 30.2 °F 19.3 °F 28.4 °F 93% 29.26 in 2.5 mi WSW 15.0 mph 20.7 mph N/A   Overcast
1:35 PM 30.2 °F 19.3 °F 28.4 °F 93% 29.26 in 1.8 mi WSW 15.0 mph 23.0 mph N/A   Overcast
1:55 PM 32.0 °F 22.5 °F 28.4 °F 87% 29.26 in 3.0 mi WSW 12.7 mph 24.2 mph N/A   Overcast
2:15 PM 30.2 °F 18.1 °F 26.6 °F 86% 29.27 in 2.5 mi West 18.4 mph 28.8 mph N/A   Overcast
2:35 PM 30.2 °F 18.5 °F 26.6 °F 86% 29.27 in 2.0 mi West 17.3 mph 31.1 mph N/A   Overcast
2:55 PM 30.2 °F 18.9 °F 26.6 °F 86% 29.28 in 2.5 mi West 16.1 mph 24.2 mph N/A   Overcast
3:15 PM 30.2 °F 20.2 °F 26.6 °F 86% 29.29 in 2.0 mi West 12.7 mph 24.2 mph N/A   Overcast
3:35 PM 30.2 °F 19.3 °F 26.6 °F 86% 29.30 in 1.8 mi WSW 15.0 mph 25.3 mph N/A   Overcast
3:55 PM 30.2 °F 19.3 °F 26.6 °F 86% 29.31 in 1.2 mi West 15.0 mph 24.2 mph N/A   Overcast
4:15 PM 30.2 °F 19.3 °F 26.6 °F 86% 29.32 in 0.8 mi West 15.0 mph 23.0 mph N/A   Overcast
4:35 PM 30.2 °F 18.9 °F 26.6 °F 86% 29.33 in 1.0 mi West 16.1 mph 27.6 mph N/A   Overcast
4:55 PM 30.2 °F 16.8 °F 26.6 °F 86% 29.35 in 1.8 mi West 23.0 mph 29.9 mph 0.01 in   Overcast
5:15 PM 30.2 °F 19.8 °F 26.6 °F 86% 29.36 in 3.0 mi West 13.8 mph 29.9 mph N/A   Overcast
5:35 PM 30.2 °F 19.3 °F 26.6 °F 86% 29.38 in 3.0 mi WNW 15.0 mph 27.6 mph N/A   Overcast
5:55 PM 28.4 °F 16.2 °F 24.8 °F 86% 29.40 in 3.0 mi West 17.3 mph 33.4 mph N/A   Overcast
6:15 PM 28.4 °F 15.4 °F 24.8 °F 86% 29.41 in 3.0 mi West 19.6 mph 29.9 mph N/A   Overcast
6:35 PM 28.4 °F 14.7 °F 24.8 °F 86% 29.42 in 2.0 mi West 21.9 mph 29.9 mph N/A   Overcast
6:55 PM 28.4 °F 17.0 °F 24.8 °F 86% 29.43 in 1.8 mi West 15.0 mph 28.8 mph N/A   Overcast
7:15 PM 28.4 °F 15.1 °F 24.8 °F 86% 29.44 in 2.0 mi West 20.7 mph 26.5 mph N/A   Overcast
7:35 PM 28.4 °F 17.0 °F 24.8 °F 86% 29.45 in 1.2 mi West 15.0 mph 24.2 mph N/A   Overcast
7:55 PM 28.4 °F 16.2 °F 24.8 °F 86% 29.46 in 1.5 mi West 17.3 mph 25.3 mph N/A   Overcast
8:15 PM 28.4 °F 16.2 °F 24.8 °F 86% 29.46 in 1.5 mi WNW 17.3 mph 28.8 mph N/A   Overcast
8:35 PM 28.4 °F 16.2 °F 24.8 °F 86% 29.47 in 1.0 mi West 17.3 mph 25.3 mph N/A   Overcast
8:55 PM 28.4 °F 15.8 °F 26.6 °F 93% 29.48 in 1.2 mi West 18.4 mph 25.3 mph N/A   Overcast
9:15 PM 28.4 °F 15.8 °F 24.8 °F 86% 29.49 in 1.5 mi West 18.4 mph 25.3 mph N/A   Overcast
9:35 PM 28.4 °F 15.1 °F 26.6 °F 93% 29.49 in 1.2 mi West 20.7 mph 25.3 mph N/A   Overcast
9:55 PM 28.4 °F 15.1 °F 24.8 °F 86% 29.50 in 1.8 mi WNW 20.7 mph 28.8 mph N/A   Overcast
10:15 PM 28.4 °F 16.2 °F 24.8 °F 86% 29.51 in 2.0 mi WNW 17.3 mph 26.5 mph N/A   Overcast
10:35 PM 28.4 °F 15.8 °F 24.8 °F 86% 29.52 in 2.0 mi West 18.4 mph 29.9 mph N/A   Overcast
10:55 PM 28.4 °F 15.4 °F 24.8 °F 86% 29.53 in 2.5 mi WNW 19.6 mph 28.8 mph N/A   Overcast
11:15 PM 28.4 °F 15.4 °F 24.8 °F 86% 29.54 in 2.5 mi WNW 19.6 mph 31.1 mph N/A   Overcast
11:35 PM 28.4 °F 15.8 °F 24.8 °F 86% 29.54 in 3.0 mi WNW 18.4 mph 27.6 mph N/A   Overcast
11:55 PM 28.4 °F 16.6 °F 24.8 °F 86% 29.55 in 2.5 mi WNW 16.1 mph 29.9 mph N/A   Overcast